Granger, IA (50109)

8:48 PM CST on February 09, 2016 (GMT -0600)
Jester Lakes Estates | | Change Station
CLOSE
Current Station
Personal Weather Station
Location: Granger, IA
Elevation: 940 ft
Nearby Weather Stations

Elev 940 ft 41.76 °N, 93.79 °W | Updated 6 seconds ago

Clear
Clear
13.1 °F
Feels Like -1 °F
N
12.1
Wind Variable Wind from NNW
Gusts 12.1 mph

Today
High -- | Low -- °F
--% Chance of Precip.
Yesterday
High -- | Low -- °F
Precip. -- in
Pressure 30.18 in
Visibility 10.0 miles
Clouds Clear
Windchill -1 °F
Dew Point -2 °F
Humidity 49%
Rainfall 0.00 in
Snow Depth Not available.
7:18 AM 5:40 PM
Waxing Crescent, 3% visible
METAR KIKV 100235Z AUTO 33011G16KT 10SM CLR M09/M14 A3018 RMK AO2
Pressure 30.18 in
Visibility 10.0 miles
Clouds Clear
Windchill -1 °F
Dew Point -2 °F
Humidity 49%
Rainfall 0.00 in
Snow Depth Not available.
7:18 AM 5:40 PM
Waxing Crescent, 3% visible
METAR KIKV 100235Z AUTO 33011G16KT 10SM CLR M09/M14 A3018 RMK AO2

10-Day Weather Forecast

Almanac

Astronomy

Feb. 09, 2016 Rise Set
Actual Time
Civil Twilight
Nautical Twilight
Astronomical Twilight
Moon
Length of Visible Light
Length of Day
Tomorrow will be .
, % of the Moon is Illuminated

Today's Extremes

State Highs State Lows

Community

WunderPhotos

Upload Photos

1,891,786 photos uploaded!

WunderBlog® & News

Nearby

Air Quality

  Air Quality AQ Index Pollutant
Not available.

Snow Depth

Station Depth Elevation

Earthquake Activity

City Distance Mag. Time & Date
Minimum magnitude displayed is 2.5.

Coastal Water Temperatures

Place Temperature

Stations

Nearby Weather Stations

Station Location Temp. Windchill Dew Point Humidity Wind Precip. Elev Updated Type
                   

Watches & Warnings

There are currently no watches in effect.